sensor_id;sensor_type;location;lat;lon;timestamp;temperature;humidity
1075;DHT22;526;51.392;12.448;2024-03-02T05:03:18;6.20;97.30
1075;DHT22;526;51.392;12.448;2024-03-02T05:05:49;6.20;97.30
1075;DHT22;526;51.392;12.448;2024-03-02T05:08:32;6.10;97.30
1075;DHT22;526;51.392;12.448;2024-03-02T05:11:01;6.10;97.30
1075;DHT22;526;51.392;12.448;2024-03-02T05:13:49;6.10;97.30
1075;DHT22;526;51.392;12.448;2024-03-02T05:16:18;6.10;97.30
1075;DHT22;526;51.392;12.448;2024-03-02T05:18:58;6.10;97.30
1075;DHT22;526;51.392;12.448;2024-03-02T05:21:31;6.20;97.30
1075;DHT22;526;51.392;12.448;2024-03-02T05:24:00;6.10;97.30
1075;DHT22;526;51.392;12.448;2024-03-02T05:26:30;6.00;97.30
1075;DHT22;526;51.392;12.448;2024-03-02T05:28:58;6.00;97.30
1075;DHT22;526;51.392;12.448;2024-03-02T05:31:29;6.00;97.30
1075;DHT22;526;51.392;12.448;2024-03-02T05:33:58;6.00;97.30
1075;DHT22;526;51.392;12.448;2024-03-02T05:36:50;5.90;97.30
1075;DHT22;526;51.392;12.448;2024-03-02T05:39:19;5.90;97.30
1075;DHT22;526;51.392;12.448;2024-03-02T05:41:52;5.90;97.30
1075;DHT22;526;51.392;12.448;2024-03-02T05:44:20;5.80;97.30
1075;DHT22;526;51.392;12.448;2024-03-02T05:46:48;5.80;97.30
1075;DHT22;526;51.392;12.448;2024-03-02T05:49:20;5.90;97.30
1075;DHT22;526;51.392;12.448;2024-03-02T05:51:48;5.90;97.30
1075;DHT22;526;51.392;12.448;2024-03-02T05:54:21;5.90;97.30
1075;DHT22;526;51.392;12.448;2024-03-02T05:56:50;6.00;97.30
1075;DHT22;526;51.392;12.448;2024-03-02T05:59:18;6.00;97.30
1075;DHT22;526;51.392;12.448;2024-03-02T06:04:55;6.10;97.30
1075;DHT22;526;51.392;12.448;2024-03-02T06:07:21;6.10;97.30
1075;DHT22;526;51.392;12.448;2024-03-02T06:09:46;6.10;97.30
1075;DHT22;526;51.392;12.448;2024-03-02T06:12:13;6.10;97.30
1075;DHT22;526;51.392;12.448;2024-03-02T06:14:39;6.10;97.30
1075;DHT22;526;51.392;12.448;2024-03-02T06:17:04;6.10;97.30
1075;DHT22;526;51.392;12.448;2024-03-02T06:19:30;6.20;97.30
1075;DHT22;526;51.392;12.448;2024-03-02T06:21:56;6.20;97.30
1075;DHT22;526;51.392;12.448;2024-03-02T06:24:21;6.20;97.30
1075;DHT22;526;51.392;12.448;2024-03-02T06:26:47;6.20;97.30
1075;DHT22;526;51.392;12.448;2024-03-02T06:29:12;6.20;97.30
1075;DHT22;526;51.392;12.448;2024-03-02T06:31:38;6.20;97.30
1075;DHT22;526;51.392;12.448;2024-03-02T06:34:03;6.30;97.30
1075;DHT22;526;51.392;12.448;2024-03-02T06:36:30;6.30;97.30
1075;DHT22;526;51.392;12.448;2024-03-02T06:38:55;6.30;97.30
1075;DHT22;526;51.392;12.448;2024-03-02T06:41:21;6.40;97.30
1075;DHT22;526;51.392;12.448;2024-03-02T06:43:46;6.40;97.30
1075;DHT22;526;51.392;12.448;2024-03-02T06:46:12;6.50;97.30
1075;DHT22;526;51.392;12.448;2024-03-02T06:48:40;6.50;97.30
1075;DHT22;526;51.392;12.448;2024-03-02T06:51:05;6.50;97.30
1075;DHT22;526;51.392;12.448;2024-03-02T06:53:31;6.50;97.30
1075;DHT22;526;51.392;12.448;2024-03-02T06:55:58;6.60;97.30
1075;DHT22;526;51.392;12.448;2024-03-02T06:58:24;6.60;97.30
1075;DHT22;526;51.392;12.448;2024-03-02T07:00:49;6.60;97.30
1075;DHT22;526;51.392;12.448;2024-03-02T07:03:16;6.60;97.30
1075;DHT22;526;51.392;12.448;2024-03-02T07:05:42;6.60;97.30
1075;DHT22;526;51.392;12.448;2024-03-02T07:08:08;6.60;97.30
1075;DHT22;526;51.392;12.448;2024-03-02T07:10:33;6.70;97.30
1075;DHT22;526;51.392;12.448;2024-03-02T07:12:59;6.70;97.30
1075;DHT22;526;51.392;12.448;2024-03-02T07:15:24;6.70;97.30
1075;DHT22;526;51.392;12.448;2024-03-02T07:17:52;6.80;97.30
1075;DHT22;526;51.392;12.448;2024-03-02T07:20:18;6.80;97.30
1075;DHT22;526;51.392;12.448;2024-03-02T07:22:43;6.90;97.30
1075;DHT22;526;51.392;12.448;2024-03-02T07:25:09;6.90;97.30
1075;DHT22;526;51.392;12.448;2024-03-02T07:27:34;7.00;97.30
1075;DHT22;526;51.392;12.448;2024-03-02T07:30:04;7.00;97.30
1075;DHT22;526;51.392;12.448;2024-03-02T07:32:30;7.10;97.30
1075;DHT22;526;51.392;12.448;2024-03-02T07:34:55;7.10;97.30
1075;DHT22;526;51.392;12.448;2024-03-02T07:37:23;7.10;97.30
1075;DHT22;526;51.392;12.448;2024-03-02T07:39:48;7.20;97.30
1075;DHT22;526;51.392;12.448;2024-03-02T07:42:14;7.20;97.30
1075;DHT22;526;51.392;12.448;2024-03-02T07:44:39;7.20;97.30
1075;DHT22;526;51.392;12.448;2024-03-02T07:47:05;7.30;97.30
1075;DHT22;526;51.392;12.448;2024-03-02T07:49:31;7.30;97.30
1075;DHT22;526;51.392;12.448;2024-03-02T07:51:57;7.30;97.30
1075;DHT22;526;51.392;12.448;2024-03-02T07:54:22;7.40;97.30
1075;DHT22;526;51.392;12.448;2024-03-02T07:56:48;7.40;97.30
1075;DHT22;526;51.392;12.448;2024-03-02T07:59:13;7.50;97.30
1075;DHT22;526;51.392;12.448;2024-03-02T08:01:39;7.50;97.30
1075;DHT22;526;51.392;12.448;2024-03-02T08:04:04;7.50;97.30
1075;DHT22;526;51.392;12.448;2024-03-02T08:06:30;7.60;97.30
1075;DHT22;526;51.392;12.448;2024-03-02T08:08:57;7.60;97.30
1075;DHT22;526;51.392;12.448;2024-03-02T08:11:23;7.70;97.30
1075;DHT22;526;51.392;12.448;2024-03-02T08:13:49;7.70;97.30
1075;DHT22;526;51.392;12.448;2024-03-02T08:16:18;7.80;97.30
1075;DHT22;526;51.392;12.448;2024-03-02T08:18:48;7.80;97.30
1075;DHT22;526;51.392;12.448;2024-03-02T08:21:14;7.80;97.30
1075;DHT22;526;51.392;12.448;2024-03-02T08:23:40;7.90;97.30
1075;DHT22;526;51.392;12.448;2024-03-02T08:26:08;7.90;97.30
1075;DHT22;526;51.392;12.448;2024-03-02T08:28:34;8.00;97.30
1075;DHT22;526;51.392;12.448;2024-03-02T08:30:59;8.00;97.30
1075;DHT22;526;51.392;12.448;2024-03-02T08:33:25;8.00;97.30
1075;DHT22;526;51.392;12.448;2024-03-02T08:35:50;8.10;97.30
1075;DHT22;526;51.392;12.448;2024-03-02T08:38:16;8.10;97.30
1075;DHT22;526;51.392;12.448;2024-03-02T08:40:42;8.10;97.30
1075;DHT22;526;51.392;12.448;2024-03-02T08:43:07;8.10;97.30
1075;DHT22;526;51.392;12.448;2024-03-02T08:45:33;8.20;97.30
1075;DHT22;526;51.392;12.448;2024-03-02T08:48:00;8.20;97.30
1075;DHT22;526;51.392;12.448;2024-03-02T08:50:25;8.20;97.30
1075;DHT22;526;51.392;12.448;2024-03-02T08:52:51;8.20;97.30
1075;DHT22;526;51.392;12.448;2024-03-02T08:55:17;8.30;97.30
1075;DHT22;526;51.392;12.448;2024-03-02T08:57:42;8.30;97.30
1075;DHT22;526;51.392;12.448;2024-03-02T09:00:08;8.40;97.30
1075;DHT22;526;51.392;12.448;2024-03-02T09:02:34;8.50;97.30
1075;DHT22;526;51.392;12.448;2024-03-02T09:04:59;8.60;97.30
1075;DHT22;526;51.392;12.448;2024-03-02T09:07:25;8.60;97.30
1075;DHT22;526;51.392;12.448;2024-03-02T09:09:51;8.70;97.30
1075;DHT22;526;51.392;12.448;2024-03-02T09:12:17;8.80;97.30
1075;DHT22;526;51.392;12.448;2024-03-02T09:14:43;8.90;97.30
1075;DHT22;526;51.392;12.448;2024-03-02T09:17:09;9.00;97.30
1075;DHT22;526;51.392;12.448;2024-03-02T09:19:36;9.10;97.30
1075;DHT22;526;51.392;12.448;2024-03-02T09:22:01;9.20;97.30
1075;DHT22;526;51.392;12.448;2024-03-02T09:24:28;9.40;97.30
1075;DHT22;526;51.392;12.448;2024-03-02T09:26:54;9.50;97.30
1075;DHT22;526;51.392;12.448;2024-03-02T09:29:19;9.60;97.30
1075;DHT22;526;51.392;12.448;2024-03-02T09:31:46;9.60;97.30
1075;DHT22;526;51.392;12.448;2024-03-02T09:34:12;9.70;97.30
1075;DHT22;526;51.392;12.448;2024-03-02T09:36:39;9.80;97.30
1075;DHT22;526;51.392;12.448;2024-03-02T09:39:05;9.80;97.30
1075;DHT22;526;51.392;12.448;2024-03-02T09:41:33;9.90;97.30
1075;DHT22;526;51.392;12.448;2024-03-02T09:43:59;9.90;97.30
1075;DHT22;526;51.392;12.448;2024-03-02T09:46:25;10.00;97.30
1075;DHT22;526;51.392;12.448;2024-03-02T09:48:50;10.00;97.30
1075;DHT22;526;51.392;12.448;2024-03-02T09:51:16;10.00;97.30
1075;DHT22;526;51.392;12.448;2024-03-02T09:53:44;10.00;97.30
1075;DHT22;526;51.392;12.448;2024-03-02T09:56:10;10.10;97.30
1075;DHT22;526;51.392;12.448;2024-03-02T09:58:36;10.10;97.30
1075;DHT22;526;51.392;12.448;2024-03-02T10:01:01;10.10;97.30
1075;DHT22;526;51.392;12.448;2024-03-02T10:03:30;10.20;97.30
1075;DHT22;526;51.392;12.448;2024-03-02T10:06:18;10.30;97.30
1075;DHT22;526;51.392;12.448;2024-03-02T10:08:44;10.30;97.30
1075;DHT22;526;51.392;12.448;2024-03-02T10:11:10;10.30;97.30
1075;DHT22;526;51.392;12.448;2024-03-02T10:13:36;10.40;97.30
1075;DHT22;526;51.392;12.448;2024-03-02T10:16:12;10.40;97.30
1075;DHT22;526;51.392;12.448;2024-03-02T10:18:37;10.60;97.30
1075;DHT22;526;51.392;12.448;2024-03-02T10:21:15;10.80;97.30
1075;DHT22;526;51.392;12.448;2024-03-02T10:23:41;10.90;97.30
1075;DHT22;526;51.392;12.448;2024-03-02T10:26:18;11.10;97.30
1075;DHT22;526;51.392;12.448;2024-03-02T10:28:47;11.30;97.30
1075;DHT22;526;51.392;12.448;2024-03-02T10:31:13;11.40;97.30
1075;DHT22;526;51.392;12.448;2024-03-02T10:33:40;11.50;97.30
1075;DHT22;526;51.392;12.448;2024-03-02T10:36:05;11.60;97.30
1075;DHT22;526;51.392;12.448;2024-03-02T10:38:31;11.70;97.30
1075;DHT22;526;51.392;12.448;2024-03-02T10:40:58;12.00;97.30
1075;DHT22;526;51.392;12.448;2024-03-02T10:43:25;12.10;97.30
1075;DHT22;526;51.392;12.448;2024-03-02T10:45:52;12.20;97.30
1075;DHT22;526;51.392;12.448;2024-03-02T10:48:18;12.20;97.30
1075;DHT22;526;51.392;12.448;2024-03-02T10:50:44;12.20;97.30
1075;DHT22;526;51.392;12.448;2024-03-02T10:53:10;12.30;97.30
1075;DHT22;526;51.392;12.448;2024-03-02T10:55:35;12.40;97.30
1075;DHT22;526;51.392;12.448;2024-03-02T10:58:04;12.60;97.30
1075;DHT22;526;51.392;12.448;2024-03-02T11:00:34;12.80;97.30
1075;DHT22;526;51.392;12.448;2024-03-02T11:03:05;13.10;97.30
1075;DHT22;526;51.392;12.448;2024-03-02T11:05:34;13.40;97.30
1075;DHT22;526;51.392;12.448;2024-03-02T11:08:03;13.50;97.30
1075;DHT22;526;51.392;12.448;2024-03-02T11:10:36;13.70;97.30
1075;DHT22;526;51.392;12.448;2024-03-02T11:13:05;14.00;97.30
1075;DHT22;526;51.392;12.448;2024-03-02T11:15:35;14.10;97.30
1075;DHT22;526;51.392;12.448;2024-03-02T11:18:04;14.10;97.10
1075;DHT22;526;51.392;12.448;2024-03-02T11:20:31;14.10;97.30
1075;DHT22;526;51.392;12.448;2024-03-02T11:22:57;14.20;96.20
1075;DHT22;526;51.392;12.448;2024-03-02T11:25:28;14.30;96.70
1075;DHT22;526;51.392;12.448;2024-03-02T11:28:03;14.60;97.20
1075;DHT22;526;51.392;12.448;2024-03-02T11:35:36;14.40;96.80
1075;DHT22;526;51.392;12.448;2024-03-02T11:38:05;14.20;95.60
1075;DHT22;526;51.392;12.448;2024-03-02T11:40:34;14.20;96.10
1075;DHT22;526;51.392;12.448;2024-03-02T11:43:01;14.30;95.60
1075;DHT22;526;51.392;12.448;2024-03-02T11:45:30;14.60;96.20
1075;DHT22;526;51.392;12.448;2024-03-02T11:47:59;14.70;95.00
1075;DHT22;526;51.392;12.448;2024-03-02T11:50:31;14.60;94.50
1075;DHT22;526;51.392;12.448;2024-03-02T11:52:59;14.80;95.00
1075;DHT22;526;51.392;12.448;2024-03-02T11:55:26;15.00;94.80
1075;DHT22;526;51.392;12.448;2024-03-02T11:57:55;14.90;93.70
1075;DHT22;526;51.392;12.448;2024-03-02T12:00:21;15.20;94.80
1075;DHT22;526;51.392;12.448;2024-03-02T12:03:24;15.20;93.10
1075;DHT22;526;51.392;12.448;2024-03-02T12:05:54;15.20;93.00
1075;DHT22;526;51.392;12.448;2024-03-02T12:08:24;15.60;94.40
1075;DHT22;526;51.392;12.448;2024-03-02T12:11:02;15.90;93.60
1075;DHT22;526;51.392;12.448;2024-03-02T12:13:29;15.90;91.60
1075;DHT22;526;51.392;12.448;2024-03-02T12:15:58;16.00;92.70
1075;DHT22;526;51.392;12.448;2024-03-02T12:18:26;16.10;91.60
1075;DHT22;526;51.392;12.448;2024-03-02T12:20:54;16.00;91.40
1075;DHT22;526;51.392;12.448;2024-03-02T12:23:26;16.00;90.40
1075;DHT22;526;51.392;12.448;2024-03-02T12:25:54;16.10;90.50
1075;DHT22;526;51.392;12.448;2024-03-02T12:28:24;16.10;90.20
1075;DHT22;526;51.392;12.448;2024-03-02T12:30:56;16.20;90.00
1075;DHT22;526;51.392;12.448;2024-03-02T12:33:24;16.10;89.50
1075;DHT22;526;51.392;12.448;2024-03-02T12:35:51;16.30;90.10
1075;DHT22;526;51.392;12.448;2024-03-02T12:38:17;16.50;89.50
1075;DHT22;526;51.392;12.448;2024-03-02T12:40:47;16.80;90.30
1075;DHT22;526;51.392;12.448;2024-03-02T12:43:15;16.90;90.00
1075;DHT22;526;51.392;12.448;2024-03-02T12:45:42;16.60;89.50
1075;DHT22;526;51.392;12.448;2024-03-02T12:48:09;16.30;89.90
1075;DHT22;526;51.392;12.448;2024-03-02T12:50:36;16.40;90.30
1075;DHT22;526;51.392;12.448;2024-03-02T12:53:04;16.60;88.80
1075;DHT22;526;51.392;12.448;2024-03-02T12:55:31;16.80;89.20
1075;DHT22;526;51.392;12.448;2024-03-02T12:57:57;17.00;89.70
1075;DHT22;526;51.392;12.448;2024-03-02T13:00:27;16.70;88.70
1075;DHT22;526;51.392;12.448;2024-03-02T13:02:53;16.80;88.50
1075;DHT22;526;51.392;12.448;2024-03-02T13:05:19;16.50;88.20
1075;DHT22;526;51.392;12.448;2024-03-02T13:07:49;16.50;88.50
1075;DHT22;526;51.392;12.448;2024-03-02T13:10:22;16.70;88.10
1075;DHT22;526;51.392;12.448;2024-03-02T13:12:53;16.80;87.70
1075;DHT22;526;51.392;12.448;2024-03-02T13:15:23;17.00;88.30
1075;DHT22;526;51.392;12.448;2024-03-02T13:17:51;17.10;87.90
1075;DHT22;526;51.392;12.448;2024-03-02T13:20:17;17.40;87.00
1075;DHT22;526;51.392;12.448;2024-03-02T13:22:48;17.70;86.60
1075;DHT22;526;51.392;12.448;2024-03-02T13:25:13;18.10;86.90
1075;DHT22;526;51.392;12.448;2024-03-02T13:27:45;18.10;85.90
1075;DHT22;526;51.392;12.448;2024-03-02T13:30:14;18.10;85.80
1075;DHT22;526;51.392;12.448;2024-03-02T13:32:43;17.90;85.80
1075;DHT22;526;51.392;12.448;2024-03-02T13:35:09;17.80;86.00
1075;DHT22;526;51.392;12.448;2024-03-02T13:37:38;17.90;86.90
1075;DHT22;526;51.392;12.448;2024-03-02T13:40:10;18.00;84.90
1075;DHT22;526;51.392;12.448;2024-03-02T13:42:51;17.60;85.70
1075;DHT22;526;51.392;12.448;2024-03-02T13:45:21;17.60;87.30
1075;DHT22;526;51.392;12.448;2024-03-02T13:47:53;17.70;85.90
1075;DHT22;526;51.392;12.448;2024-03-02T13:50:36;18.00;86.20
1075;DHT22;526;51.392;12.448;2024-03-02T13:53:03;18.10;84.60
1075;DHT22;526;51.392;12.448;2024-03-02T13:55:33;18.20;84.90
1075;DHT22;526;51.392;12.448;2024-03-02T13:58:02;18.40;84.30
1075;DHT22;526;51.392;12.448;2024-03-02T14:00:31;18.40;83.00
1075;DHT22;526;51.392;12.448;2024-03-02T14:02:59;18.40;83.50
1075;DHT22;526;51.392;12.448;2024-03-02T14:05:27;18.50;83.50
1075;DHT22;526;51.392;12.448;2024-03-02T14:07:58;18.80;84.10
1075;DHT22;526;51.392;12.448;2024-03-02T14:10:26;18.60;83.10
1075;DHT22;526;51.392;12.448;2024-03-02T14:12:58;18.10;83.70
1075;DHT22;526;51.392;12.448;2024-03-02T14:15:39;17.90;83.50
1075;DHT22;526;51.392;12.448;2024-03-02T14:18:09;17.70;84.50
1075;DHT22;526;51.392;12.448;2024-03-02T14:20:45;17.90;84.80
1075;DHT22;526;51.392;12.448;2024-03-02T14:23:27;17.60;84.60
1075;DHT22;526;51.392;12.448;2024-03-02T14:26:03;17.60;85.20
1075;DHT22;526;51.392;12.448;2024-03-02T14:28:29;17.60;84.60
1075;DHT22;526;51.392;12.448;2024-03-02T14:31:15;17.70;84.80
1075;DHT22;526;51.392;12.448;2024-03-02T14:33:49;18.00;85.10
1075;DHT22;526;51.392;12.448;2024-03-02T14:36:16;18.20;84.60
1075;DHT22;526;51.392;12.448;2024-03-02T14:38:44;18.50;84.60
1075;DHT22;526;51.392;12.448;2024-03-02T14:41:13;18.40;83.70
1075;DHT22;526;51.392;12.448;2024-03-02T14:43:40;18.40;84.40
1075;DHT22;526;51.392;12.448;2024-03-02T14:46:08;18.20;84.50
1075;DHT22;526;51.392;12.448;2024-03-02T14:48:41;17.90;85.40
1075;DHT22;526;51.392;12.448;2024-03-02T14:51:17;17.40;85.50
1075;DHT22;526;51.392;12.448;2024-03-02T14:53:45;16.70;87.00
1075;DHT22;526;51.392;12.448;2024-03-02T14:56:12;16.30;88.10
1075;DHT22;526;51.392;12.448;2024-03-02T14:58:41;16.50;88.30
1075;DHT22;526;51.392;12.448;2024-03-02T15:01:14;16.70;87.60
1075;DHT22;526;51.392;12.448;2024-03-02T15:03:49;16.80;87.70
1075;DHT22;526;51.392;12.448;2024-03-02T15:06:21;17.00;87.50
1075;DHT22;526;51.392;12.448;2024-03-02T15:08:53;17.30;86.50
1075;DHT22;526;51.392;12.448;2024-03-02T15:11:20;17.50;86.00
1075;DHT22;526;51.392;12.448;2024-03-02T15:13:53;17.60;85.30
1075;DHT22;526;51.392;12.448;2024-03-02T15:16:22;17.50;85.30
1075;DHT22;526;51.392;12.448;2024-03-02T15:18:53;17.30;85.70
1075;DHT22;526;51.392;12.448;2024-03-02T15:21:20;17.30;86.00
1075;DHT22;526;51.392;12.448;2024-03-02T15:23:46;17.20;86.40
1075;DHT22;526;51.392;12.448;2024-03-02T15:26:14;17.30;86.60
1075;DHT22;526;51.392;12.448;2024-03-02T15:28:42;17.40;86.50
1075;DHT22;526;51.392;12.448;2024-03-02T15:31:08;17.50;86.40
1075;DHT22;526;51.392;12.448;2024-03-02T15:33:37;17.60;86.00
1075;DHT22;526;51.392;12.448;2024-03-02T15:36:04;17.30;86.90
1075;DHT22;526;51.392;12.448;2024-03-02T15:38:33;17.10;87.50
1075;DHT22;526;51.392;12.448;2024-03-02T15:41:04;16.90;88.10
1075;DHT22;526;51.392;12.448;2024-03-02T15:43:30;16.70;88.50
1075;DHT22;526;51.392;12.448;2024-03-02T15:45:57;16.70;88.70
1075;DHT22;526;51.392;12.448;2024-03-02T15:48:24;16.70;89.10
1075;DHT22;526;51.392;12.448;2024-03-02T15:50:51;16.80;88.90
1075;DHT22;526;51.392;12.448;2024-03-02T15:53:18;17.10;88.70
1075;DHT22;526;51.392;12.448;2024-03-02T15:55:43;17.10;88.30
1075;DHT22;526;51.392;12.448;2024-03-02T15:58:12;17.30;87.90
1075;DHT22;526;51.392;12.448;2024-03-02T16:00:39;17.60;87.30
1075;DHT22;526;51.392;12.448;2024-03-02T16:03:10;18.30;85.80
1075;DHT22;526;51.392;12.448;2024-03-02T16:05:37;18.60;84.80
1075;DHT22;526;51.392;12.448;2024-03-02T16:08:04;18.90;84.10
1075;DHT22;526;51.392;12.448;2024-03-02T16:10:32;19.10;83.40
1075;DHT22;526;51.392;12.448;2024-03-02T16:12:59;19.20;82.80
1075;DHT22;526;51.392;12.448;2024-03-02T16:15:27;19.00;82.90
1075;DHT22;526;51.392;12.448;2024-03-02T16:17:56;18.30;83.70
1075;DHT22;526;51.392;12.448;2024-03-02T16:20:25;17.40;85.10
1075;DHT22;526;51.392;12.448;2024-03-02T16:22:51;16.70;87.00
1075;DHT22;526;51.392;12.448;2024-03-02T16:25:17;16.20;88.40
1075;DHT22;526;51.392;12.448;2024-03-02T16:27:43;15.60;90.00
1075;DHT22;526;51.392;12.448;2024-03-02T16:30:12;15.20;91.40
1075;DHT22;526;51.392;12.448;2024-03-02T16:32:38;14.70;92.80
1075;DHT22;526;51.392;12.448;2024-03-02T16:35:04;14.30;94.30
1075;DHT22;526;51.392;12.448;2024-03-02T16:37:32;14.00;95.30
1075;DHT22;526;51.392;12.448;2024-03-02T16:39:59;13.80;96.10
1075;DHT22;526;51.392;12.448;2024-03-02T16:42:26;13.60;97.00
1075;DHT22;526;51.392;12.448;2024-03-02T16:44:53;13.40;97.30
1075;DHT22;526;51.392;12.448;2024-03-02T16:47:23;13.20;97.30
1075;DHT22;526;51.392;12.448;2024-03-02T16:49:49;13.00;97.30
1075;DHT22;526;51.392;12.448;2024-03-02T16:52:16;12.90;97.30
1075;DHT22;526;51.392;12.448;2024-03-02T16:54:43;12.80;97.30
1075;DHT22;526;51.392;12.448;2024-03-02T16:57:11;12.70;97.30
1075;DHT22;526;51.392;12.448;2024-03-02T16:59:41;12.60;97.30
1075;DHT22;526;51.392;12.448;2024-03-02T17:02:10;12.40;97.30
1075;DHT22;526;51.392;12.448;2024-03-02T17:04:36;12.30;97.30
1075;DHT22;526;51.392;12.448;2024-03-02T17:07:02;12.20;97.30
1075;DHT22;526;51.392;12.448;2024-03-02T17:09:30;12.10;97.30
1075;DHT22;526;51.392;12.448;2024-03-02T17:11:57;12.00;97.30
1075;DHT22;526;51.392;12.448;2024-03-02T17:14:23;12.00;97.30
1075;DHT22;526;51.392;12.448;2024-03-02T17:16:50;11.90;97.30
1075;DHT22;526;51.392;12.448;2024-03-02T17:19:17;11.80;97.30
1075;DHT22;526;51.392;12.448;2024-03-02T17:21:43;11.80;97.30
1075;DHT22;526;51.392;12.448;2024-03-02T17:24:09;11.70;97.30
1075;DHT22;526;51.392;12.448;2024-03-02T17:26:39;11.60;97.30
1075;DHT22;526;51.392;12.448;2024-03-02T17:29:05;11.60;97.30
1075;DHT22;526;51.392;12.448;2024-03-02T17:31:31;11.50;97.30
1075;DHT22;526;51.392;12.448;2024-03-02T17:33:57;11.50;97.30
1075;DHT22;526;51.392;12.448;2024-03-02T17:36:22;11.40;97.30
1075;DHT22;526;51.392;12.448;2024-03-02T17:38:48;11.40;97.30
1075;DHT22;526;51.392;12.448;2024-03-02T17:41:14;11.30;97.30
1075;DHT22;526;51.392;12.448;2024-03-02T17:43:39;11.20;97.30
1075;DHT22;526;51.392;12.448;2024-03-02T17:46:05;11.20;97.30
1075;DHT22;526;51.392;12.448;2024-03-02T17:48:31;11.10;97.30
1075;DHT22;526;51.392;12.448;2024-03-02T17:50:57;11.10;97.30
1075;DHT22;526;51.392;12.448;2024-03-02T17:53:23;11.00;97.30
1075;DHT22;526;51.392;12.448;2024-03-02T17:55:48;11.00;97.30
1075;DHT22;526;51.392;12.448;2024-03-02T17:58:14;11.00;97.30
1075;DHT22;526;51.392;12.448;2024-03-02T18:00:40;10.90;97.30
1075;DHT22;526;51.392;12.448;2024-03-02T18:03:09;10.90;97.30
1075;DHT22;526;51.392;12.448;2024-03-02T18:05:35;10.80;97.30
1075;DHT22;526;51.392;12.448;2024-03-02T18:08:02;10.80;97.30
1075;DHT22;526;51.392;12.448;2024-03-02T18:10:27;10.80;97.30
1075;DHT22;526;51.392;12.448;2024-03-02T18:12:57;10.70;97.30
1075;DHT22;526;51.392;12.448;2024-03-02T18:15:22;10.70;97.30
1075;DHT22;526;51.392;12.448;2024-03-02T18:17:48;10.60;97.30
1075;DHT22;526;51.392;12.448;2024-03-02T18:20:13;10.60;97.30
1075;DHT22;526;51.392;12.448;2024-03-02T18:22:39;10.60;97.30
1075;DHT22;526;51.392;12.448;2024-03-02T18:25:05;10.50;97.30
1075;DHT22;526;51.392;12.448;2024-03-02T18:27:31;10.50;97.30
1075;DHT22;526;51.392;12.448;2024-03-02T18:29:56;10.40;97.30
1075;DHT22;526;51.392;12.448;2024-03-02T18:32:22;10.40;97.30
1075;DHT22;526;51.392;12.448;2024-03-02T18:34:48;10.40;97.30
1075;DHT22;526;51.392;12.448;2024-03-02T18:37:14;10.30;97.30
1075;DHT22;526;51.392;12.448;2024-03-02T18:39:40;10.30;97.30
1075;DHT22;526;51.392;12.448;2024-03-02T18:42:06;10.20;97.30
1075;DHT22;526;51.392;12.448;2024-03-02T18:44:32;10.20;97.30
1075;DHT22;526;51.392;12.448;2024-03-02T18:46:58;10.10;97.30
1075;DHT22;526;51.392;12.448;2024-03-02T18:49:24;10.10;97.30
1075;DHT22;526;51.392;12.448;2024-03-02T18:51:50;10.10;97.30
1075;DHT22;526;51.392;12.448;2024-03-02T18:54:15;10.10;97.30
1075;DHT22;526;51.392;12.448;2024-03-02T18:56:41;10.00;97.30
1075;DHT22;526;51.392;12.448;2024-03-02T18:59:07;10.00;97.30
1075;DHT22;526;51.392;12.448;2024-03-02T19:01:33;9.90;97.30
1075;DHT22;526;51.392;12.448;2024-03-02T19:03:58;9.90;97.30
1075;DHT22;526;51.392;12.448;2024-03-02T19:06:24;9.90;97.30
1075;DHT22;526;51.392;12.448;2024-03-02T19:08:49;9.80;97.30
1075;DHT22;526;51.392;12.448;2024-03-02T19:11:18;9.80;97.30
1075;DHT22;526;51.392;12.448;2024-03-02T19:13:44;9.70;97.30
1075;DHT22;526;51.392;12.448;2024-03-02T19:16:11;9.70;97.30
1075;DHT22;526;51.392;12.448;2024-03-02T19:18:40;9.70;97.30
1075;DHT22;526;51.392;12.448;2024-03-02T19:21:07;9.60;97.30
1075;DHT22;526;51.392;12.448;2024-03-02T19:23:33;9.60;97.30
1075;DHT22;526;51.392;12.448;2024-03-02T19:25:58;9.60;97.30
1075;DHT22;526;51.392;12.448;2024-03-02T19:28:24;9.60;97.30
1075;DHT22;526;51.392;12.448;2024-03-02T19:30:50;9.60;97.30
1075;DHT22;526;51.392;12.448;2024-03-02T19:33:16;9.50;97.30
1075;DHT22;526;51.392;12.448;2024-03-02T19:35:43;9.50;97.30
1075;DHT22;526;51.392;12.448;2024-03-02T19:38:09;9.50;97.30
1075;DHT22;526;51.392;12.448;2024-03-02T19:40:35;9.50;97.30
1075;DHT22;526;51.392;12.448;2024-03-02T19:43:00;9.40;97.30
1075;DHT22;526;51.392;12.448;2024-03-02T19:45:26;9.40;97.30
1075;DHT22;526;51.392;12.448;2024-03-02T19:47:51;9.30;97.30
1075;DHT22;526;51.392;12.448;2024-03-02T19:50:17;9.30;97.30
1075;DHT22;526;51.392;12.448;2024-03-02T19:52:43;9.30;97.30
1075;DHT22;526;51.392;12.448;2024-03-02T19:55:09;9.30;97.30
1075;DHT22;526;51.392;12.448;2024-03-02T19:57:35;9.30;97.30
1075;DHT22;526;51.392;12.448;2024-03-02T20:00:07;9.30;97.30
1075;DHT22;526;51.392;12.448;2024-03-02T20:02:33;9.20;97.30
1075;DHT22;526;51.392;12.448;2024-03-02T20:04:58;9.20;97.30
1075;DHT22;526;51.392;12.448;2024-03-02T20:07:24;9.20;97.30
1075;DHT22;526;51.392;12.448;2024-03-02T20:09:49;9.10;97.30
1075;DHT22;526;51.392;12.448;2024-03-02T20:12:16;9.10;97.30
1075;DHT22;526;51.392;12.448;2024-03-02T20:14:41;9.10;97.30
1075;DHT22;526;51.392;12.448;2024-03-02T20:17:09;9.10;97.30
1075;DHT22;526;51.392;12.448;2024-03-02T20:19:38;9.10;97.30
1075;DHT22;526;51.392;12.448;2024-03-02T20:22:04;9.10;97.30
1075;DHT22;526;51.392;12.448;2024-03-02T20:24:30;9.00;97.30
1075;DHT22;526;51.392;12.448;2024-03-02T20:26:55;9.00;97.30
1075;DHT22;526;51.392;12.448;2024-03-02T20:29:21;9.00;97.30
1075;DHT22;526;51.392;12.448;2024-03-02T20:31:46;9.00;97.30
1075;DHT22;526;51.392;12.448;2024-03-02T20:34:12;8.90;97.30
1075;DHT22;526;51.392;12.448;2024-03-02T20:36:41;8.90;97.30
1075;DHT22;526;51.392;12.448;2024-03-02T20:39:06;8.90;97.30
1075;DHT22;526;51.392;12.448;2024-03-02T20:41:33;8.90;97.30
1075;DHT22;526;51.392;12.448;2024-03-02T20:43:59;8.90;97.30
1075;DHT22;526;51.392;12.448;2024-03-02T20:46:24;8.80;97.30
1075;DHT22;526;51.392;12.448;2024-03-02T20:48:50;8.80;97.30
1075;DHT22;526;51.392;12.448;2024-03-02T20:51:15;8.80;97.30
1075;DHT22;526;51.392;12.448;2024-03-02T20:53:41;8.80;97.30
1075;DHT22;526;51.392;12.448;2024-03-02T20:56:07;8.70;97.30
1075;DHT22;526;51.392;12.448;2024-03-02T20:58:32;8.60;97.30
1075;DHT22;526;51.392;12.448;2024-03-02T21:00:58;8.60;97.30
1075;DHT22;526;51.392;12.448;2024-03-02T21:03:24;8.60;97.30
1075;DHT22;526;51.392;12.448;2024-03-02T21:05:49;8.50;97.30
1075;DHT22;526;51.392;12.448;2024-03-02T21:08:15;8.40;97.30
1075;DHT22;526;51.392;12.448;2024-03-02T21:10:40;8.30;97.30
1075;DHT22;526;51.392;12.448;2024-03-02T21:13:07;8.20;97.30
1075;DHT22;526;51.392;12.448;2024-03-02T21:15:32;8.20;97.30
1075;DHT22;526;51.392;12.448;2024-03-02T21:17:58;8.20;97.30
1075;DHT22;526;51.392;12.448;2024-03-02T21:20:26;8.20;97.30
1075;DHT22;526;51.392;12.448;2024-03-02T21:22:52;8.10;97.30